Aérodrome :
LOGIN :

S'inscrire | Disclaimer

   EN    FR    IT 

 










Légende :    VFR   VFR Marginal   IFR   IFR Intensif   IFR Très Intensif
Visi : 
Plafond : 
>= 8 km
>= 3000ft
5 à 8 km
1000 à 3000 ft
1500m à 5 km
500 à 1000 ft
800 à 1500m
200 à 500 ft
< 800m
< 200 ft
Symboles :   Orages  Brouillard  Fortes neiges  Fortes précipitations  Vent > 20 kt
SIGMETs :   Divers  Orages  Givrage  Turbulence  Onde Orograph.  Cendres Volcan.






- Altitude de l'aérodrome : 659 ft
- Code IATA : LYN


LFLY - Lyon Bron

DERNIER METAR :
  • 231830Z AUTO 22007KT 200V260 8000 RA FEW052/// SCT068/// OVC088/// ///CB 18/14 Q1017 TEMPO 22015G30KT 2000 TSRA BKN014 BKN035CB

METARs EXPIRÉS :
  • 231800Z AUTO 27008KT 9999 -TSRA FEW038/// BKN070/// BKN100/// ///CB 18/15 Q1017 TEMPO 22015G30KT 1000 TSGR BKN014 BKN035CB
  • 231730Z AUTO 29020KT 9999 TSRA FEW017/// BKN052/// BKN110/// ///CB 17/15 Q1017 TEMPO 22015G30KT 1000 TSGR BKN014 BKN035CB
  • 231700Z AUTO 29013G32KT 230V360 9999 TS FEW013/// BKN050/// BKN074/// ///CB 22/14 Q1016 TEMPO 1000 TSGR
  • 231630Z AUTO VRB03KT 9999 TS FEW050/// SCT076/// BKN170/// ///CB 25/14 Q1015 TEMPO VRB15G30KT 1000 TSGR
  • 231600Z AUTO 36004KT 310V060 9999 SCT050/// BKN140/// BKN220/// ///CB 26/14 Q1015 TEMPO VRB15G30KT 2000 TSRA

TAF TAF LFLY
Valide du 23 à 18h jusqu'au 24 à 18h UTC


231700Z 2318/2418 35006KT 9999 BKN040
TEMPO 2318/2323 22015G30KT 2000 TSRA BKN014 BKN035CB
PROB40
TEMPO 2318/2320 1000 TSGR
PROB30
TEMPO 2402/2407 4000 BR BKN012
PROB40
TEMPO 2408/2412 VRB15KT 2000 TSRA SCT015 BKN020CB
PROB40
TEMPO 2412/2416 4000 SHRA BKN025TCU
ATIS : +33 4 72 15 87 96



MET'MAP, la Météo Aéronautique d'un coup d'oeil ! - Copyright ORBIFLY Décembre 2007 - Disclaimer

ORBIFLY MET'MAP TEAM :

Programmation & Développement : Alexandra Zaïnal
Sur une idée originale de : Baudouin d'Aumeries
Assistance à la programmation : Marc-Olivier Méhu
Soutien technique & logistique : Manuel Goepfert

Contact : metmap@orbifly.com




SOURCES & CREDITS :

   NOAA